sensor_id;sensor_type;location;lat;lon;timestamp;P1;durP1;ratioP1;P2;durP2;ratioP2
33840;SDS011;20142;28.494;-16.312;2023-04-01T00:02:07;29.52;;;4.72;;
33840;SDS011;20142;28.494;-16.312;2023-04-01T00:07:10;17.52;;;3.63;;
33840;SDS011;20142;28.494;-16.312;2023-04-01T00:12:13;20.23;;;4.18;;
33840;SDS011;20142;28.494;-16.312;2023-04-01T00:17:15;20.60;;;4.22;;
33840;SDS011;20142;28.494;-16.312;2023-04-01T00:22:17;23.90;;;4.68;;
33840;SDS011;20142;28.494;-16.312;2023-04-01T00:27:18;30.02;;;4.40;;
33840;SDS011;20142;28.494;-16.312;2023-04-01T00:32:20;20.35;;;3.97;;
33840;SDS011;20142;28.494;-16.312;2023-04-01T00:37:22;19.33;;;3.90;;
33840;SDS011;20142;28.494;-16.312;2023-04-01T00:42:25;22.70;;;4.18;;
33840;SDS011;20142;28.494;-16.312;2023-04-01T00:47:26;20.80;;;4.18;;
33840;SDS011;20142;28.494;-16.312;2023-04-01T00:52:28;23.05;;;4.32;;
33840;SDS011;20142;28.494;-16.312;2023-04-01T00:57:31;21.15;;;4.07;;
33840;SDS011;20142;28.494;-16.312;2023-04-01T01:02:37;21.90;;;3.80;;
33840;SDS011;20142;28.494;-16.312;2023-04-01T01:07:55;23.50;;;4.20;;
33840;SDS011;20142;28.494;-16.312;2023-04-01T01:13:32;20.45;;;4.07;;
33840;SDS011;20142;28.494;-16.312;2023-04-01T01:19:06;23.95;;;3.85;;
33840;SDS011;20142;28.494;-16.312;2023-04-01T01:29:57;20.67;;;3.70;;
33840;SDS011;20142;28.494;-16.312;2023-04-01T01:35:46;27.10;;;3.97;;
33840;SDS011;20142;28.494;-16.312;2023-04-01T01:40:39;21.92;;;3.88;;
33840;SDS011;20142;28.494;-16.312;2023-04-01T01:45:49;20.88;;;3.38;;
33840;SDS011;20142;28.494;-16.312;2023-04-01T01:50:55;21.52;;;4.18;;
33840;SDS011;20142;28.494;-16.312;2023-04-01T01:55:58;22.05;;;3.78;;
33840;SDS011;20142;28.494;-16.312;2023-04-01T02:01:00;25.95;;;3.72;;
33840;SDS011;20142;28.494;-16.312;2023-04-01T02:06:06;18.30;;;3.67;;
33840;SDS011;20142;28.494;-16.312;2023-04-01T02:11:12;18.70;;;3.05;;
33840;SDS011;20142;28.494;-16.312;2023-04-01T02:16:19;20.75;;;3.97;;
33840;SDS011;20142;28.494;-16.312;2023-04-01T02:22:13;28.25;;;3.88;;
33840;SDS011;20142;28.494;-16.312;2023-04-01T02:27:19;19.85;;;3.63;;
33840;SDS011;20142;28.494;-16.312;2023-04-01T02:32:21;17.83;;;3.38;;
33840;SDS011;20142;28.494;-16.312;2023-04-01T02:37:23;21.40;;;3.28;;
33840;SDS011;20142;28.494;-16.312;2023-04-01T02:42:25;22.63;;;3.67;;
33840;SDS011;20142;28.494;-16.312;2023-04-01T02:47:27;25.70;;;4.18;;
33840;SDS011;20142;28.494;-16.312;2023-04-01T02:52:28;19.30;;;3.83;;
33840;SDS011;20142;28.494;-16.312;2023-04-01T02:57:30;21.30;;;3.08;;
33840;SDS011;20142;28.494;-16.312;2023-04-01T03:02:32;20.00;;;3.50;;
33840;SDS011;20142;28.494;-16.312;2023-04-01T03:07:34;20.15;;;3.30;;
33840;SDS011;20142;28.494;-16.312;2023-04-01T03:12:35;19.52;;;3.70;;
33840;SDS011;20142;28.494;-16.312;2023-04-01T03:17:38;17.05;;;3.70;;
33840;SDS011;20142;28.494;-16.312;2023-04-01T03:22:40;23.77;;;3.90;;
33840;SDS011;20142;28.494;-16.312;2023-04-01T03:27:41;16.40;;;3.30;;
33840;SDS011;20142;28.494;-16.312;2023-04-01T03:32:43;21.95;;;3.67;;
33840;SDS011;20142;28.494;-16.312;2023-04-01T03:37:45;20.20;;;3.58;;
33840;SDS011;20142;28.494;-16.312;2023-04-01T03:42:46;21.35;;;3.67;;
33840;SDS011;20142;28.494;-16.312;2023-04-01T03:47:48;18.75;;;3.70;;
33840;SDS011;20142;28.494;-16.312;2023-04-01T03:52:50;23.83;;;4.13;;
33840;SDS011;20142;28.494;-16.312;2023-04-01T03:57:51;27.73;;;4.10;;
33840;SDS011;20142;28.494;-16.312;2023-04-01T04:02:53;19.33;;;3.30;;
33840;SDS011;20142;28.494;-16.312;2023-04-01T04:07:57;17.55;;;3.38;;
33840;SDS011;20142;28.494;-16.312;2023-04-01T04:12:58;20.63;;;3.55;;
33840;SDS011;20142;28.494;-16.312;2023-04-01T04:18:00;17.20;;;3.67;;
33840;SDS011;20142;28.494;-16.312;2023-04-01T04:23:02;20.83;;;4.35;;
33840;SDS011;20142;28.494;-16.312;2023-04-01T04:28:03;18.38;;;3.65;;
33840;SDS011;20142;28.494;-16.312;2023-04-01T04:33:05;18.30;;;3.97;;
33840;SDS011;20142;28.494;-16.312;2023-04-01T04:38:07;18.30;;;3.60;;
33840;SDS011;20142;28.494;-16.312;2023-04-01T04:43:12;25.77;;;3.67;;
33840;SDS011;20142;28.494;-16.312;2023-04-01T04:48:16;29.20;;;3.92;;
33840;SDS011;20142;28.494;-16.312;2023-04-01T04:53:21;18.95;;;3.50;;
33840;SDS011;20142;28.494;-16.312;2023-04-01T04:58:22;14.85;;;3.70;;
33840;SDS011;20142;28.494;-16.312;2023-04-01T05:03:24;17.60;;;3.60;;
33840;SDS011;20142;28.494;-16.312;2023-04-01T05:08:26;22.30;;;3.67;;
33840;SDS011;20142;28.494;-16.312;2023-04-01T05:13:27;19.02;;;3.42;;
33840;SDS011;20142;28.494;-16.312;2023-04-01T05:18:29;16.77;;;3.30;;
33840;SDS011;20142;28.494;-16.312;2023-04-01T05:23:31;20.75;;;3.20;;
33840;SDS011;20142;28.494;-16.312;2023-04-01T05:28:33;14.73;;;3.35;;
33840;SDS011;20142;28.494;-16.312;2023-04-01T05:33:35;21.40;;;3.83;;
33840;SDS011;20142;28.494;-16.312;2023-04-01T05:38:37;13.90;;;3.47;;
33840;SDS011;20142;28.494;-16.312;2023-04-01T05:43:40;21.13;;;4.35;;
33840;SDS011;20142;28.494;-16.312;2023-04-01T05:48:42;20.20;;;4.10;;
33840;SDS011;20142;28.494;-16.312;2023-04-01T05:58:46;16.20;;;3.28;;
33840;SDS011;20142;28.494;-16.312;2023-04-01T06:03:51;18.55;;;3.70;;
33840;SDS011;20142;28.494;-16.312;2023-04-01T06:08:53;19.77;;;3.28;;
33840;SDS011;20142;28.494;-16.312;2023-04-01T06:25:10;19.70;;;3.60;;
33840;SDS011;20142;28.494;-16.312;2023-04-01T06:52:41;19.02;;;3.70;;
33840;SDS011;20142;28.494;-16.312;2023-04-01T06:57:58;24.08;;;3.65;;
33840;SDS011;20142;28.494;-16.312;2023-04-01T07:03:07;17.83;;;3.47;;
33840;SDS011;20142;28.494;-16.312;2023-04-01T07:08:39;19.70;;;3.47;;
33840;SDS011;20142;28.494;-16.312;2023-04-01T07:13:46;22.67;;;4.00;;
33840;SDS011;20142;28.494;-16.312;2023-04-01T07:19:18;14.48;;;3.30;;
33840;SDS011;20142;28.494;-16.312;2023-04-01T07:24:36;20.58;;;3.70;;
33840;SDS011;20142;28.494;-16.312;2023-04-01T07:29:40;14.25;;;3.15;;
33840;SDS011;20142;28.494;-16.312;2023-04-01T07:45:58;22.23;;;3.95;;
33840;SDS011;20142;28.494;-16.312;2023-04-01T07:56:51;23.38;;;3.42;;
33840;SDS011;20142;28.494;-16.312;2023-04-01T08:07:30;25.65;;;3.38;;
33840;SDS011;20142;28.494;-16.312;2023-04-01T08:12:58;24.67;;;4.18;;
33840;SDS011;20142;28.494;-16.312;2023-04-01T08:24:00;26.07;;;4.23;;
33840;SDS011;20142;28.494;-16.312;2023-04-01T08:29:56;27.48;;;4.82;;
33840;SDS011;20142;28.494;-16.312;2023-04-01T08:35:26;22.67;;;3.38;;
33840;SDS011;20142;28.494;-16.312;2023-04-01T08:52:01;25.63;;;3.55;;
33840;SDS011;20142;28.494;-16.312;2023-04-01T08:57:45;30.20;;;4.40;;
33840;SDS011;20142;28.494;-16.312;2023-04-01T09:03:30;23.70;;;4.38;;
33840;SDS011;20142;28.494;-16.312;2023-04-01T09:37:17;27.00;;;4.50;;
33840;SDS011;20142;28.494;-16.312;2023-04-01T09:42:45;27.92;;;5.13;;
33840;SDS011;20142;28.494;-16.312;2023-04-01T09:53:57;26.25;;;4.43;;
33840;SDS011;20142;28.494;-16.312;2023-04-01T10:11:15;25.38;;;4.53;;
33840;SDS011;20142;28.494;-16.312;2023-04-01T10:16:50;28.65;;;4.50;;
33840;SDS011;20142;28.494;-16.312;2023-04-01T10:28:02;26.42;;;5.03;;
33840;SDS011;20142;28.494;-16.312;2023-04-01T11:23:10;17.08;;;3.55;;
33840;SDS011;20142;28.494;-16.312;2023-04-01T11:40:11;19.27;;;4.13;;
33840;SDS011;20142;28.494;-16.312;2023-04-01T11:50:45;18.42;;;3.60;;
33840;SDS011;20142;28.494;-16.312;2023-04-01T12:18:33;12.20;;;2.63;;
33840;SDS011;20142;28.494;-16.312;2023-04-01T13:31:49;7.03;;;1.85;;
33840;SDS011;20142;28.494;-16.312;2023-04-01T13:42:46;9.38;;;1.90;;
33840;SDS011;20142;28.494;-16.312;2023-04-01T13:48:09;8.85;;;1.63;;
33840;SDS011;20142;28.494;-16.312;2023-04-01T14:14:59;6.97;;;2.05;;
33840;SDS011;20142;28.494;-16.312;2023-04-01T14:20:30;10.30;;;2.58;;
33840;SDS011;20142;28.494;-16.312;2023-04-01T14:58:46;6.60;;;1.92;;
33840;SDS011;20142;28.494;-16.312;2023-04-01T15:26:04;4.28;;;1.65;;
33840;SDS011;20142;28.494;-16.312;2023-04-01T15:31:24;6.75;;;1.65;;
33840;SDS011;20142;28.494;-16.312;2023-04-01T15:36:43;4.65;;;0.93;;
33840;SDS011;20142;28.494;-16.312;2023-04-01T15:42:14;3.50;;;0.88;;
33840;SDS011;20142;28.494;-16.312;2023-04-01T15:52:38;2.17;;;0.90;;
33840;SDS011;20142;28.494;-16.312;2023-04-01T15:58:19;4.43;;;0.80;;
33840;SDS011;20142;28.494;-16.312;2023-04-01T16:15:08;4.88;;;1.42;;
33840;SDS011;20142;28.494;-16.312;2023-04-01T16:20:25;2.40;;;0.60;;
33840;SDS011;20142;28.494;-16.312;2023-04-01T16:26:26;4.00;;;0.98;;
33840;SDS011;20142;28.494;-16.312;2023-04-01T16:31:29;5.28;;;0.77;;
33840;SDS011;20142;28.494;-16.312;2023-04-01T16:42:19;1.25;;;0.40;;
33840;SDS011;20142;28.494;-16.312;2023-04-01T16:47:49;2.33;;;0.90;;
33840;SDS011;20142;28.494;-16.312;2023-04-01T16:58:18;4.18;;;0.68;;
33840;SDS011;20142;28.494;-16.312;2023-04-01T17:03:44;1.95;;;0.73;;
33840;SDS011;20142;28.494;-16.312;2023-04-01T17:14:26;4.13;;;0.75;;
33840;SDS011;20142;28.494;-16.312;2023-04-01T17:25:34;2.95;;;0.88;;
33840;SDS011;20142;28.494;-16.312;2023-04-01T17:31:29;5.93;;;0.90;;
33840;SDS011;20142;28.494;-16.312;2023-04-01T17:37:00;3.25;;;0.93;;
33840;SDS011;20142;28.494;-16.312;2023-04-01T17:42:11;2.38;;;0.70;;
33840;SDS011;20142;28.494;-16.312;2023-04-01T17:47:59;3.88;;;0.70;;
33840;SDS011;20142;28.494;-16.312;2023-04-01T17:59:38;2.20;;;0.77;;
33840;SDS011;20142;28.494;-16.312;2023-04-01T18:16:16;2.67;;;0.70;;
33840;SDS011;20142;28.494;-16.312;2023-04-01T18:26:51;2.00;;;0.70;;
33840;SDS011;20142;28.494;-16.312;2023-04-01T18:32:24;3.70;;;1.13;;
33840;SDS011;20142;28.494;-16.312;2023-04-01T18:37:54;3.90;;;0.98;;
33840;SDS011;20142;28.494;-16.312;2023-04-01T18:48:27;5.57;;;1.00;;
33840;SDS011;20142;28.494;-16.312;2023-04-01T18:59:28;2.33;;;0.88;;
33840;SDS011;20142;28.494;-16.312;2023-04-01T19:04:57;5.10;;;1.13;;
33840;SDS011;20142;28.494;-16.312;2023-04-01T19:10:13;7.03;;;1.48;;
33840;SDS011;20142;28.494;-16.312;2023-04-01T19:26:09;7.93;;;1.10;;
33840;SDS011;20142;28.494;-16.312;2023-04-01T19:52:50;5.22;;;1.20;;
33840;SDS011;20142;28.494;-16.312;2023-04-01T19:58:04;3.63;;;0.70;;
33840;SDS011;20142;28.494;-16.312;2023-04-01T20:03:29;6.32;;;1.20;;
33840;SDS011;20142;28.494;-16.312;2023-04-01T20:14:00;6.45;;;0.88;;
33840;SDS011;20142;28.494;-16.312;2023-04-01T20:19:10;3.85;;;1.10;;
33840;SDS011;20142;28.494;-16.312;2023-04-01T20:24:34;2.22;;;0.77;;
33840;SDS011;20142;28.494;-16.312;2023-04-01T20:30:03;5.13;;;1.10;;
33840;SDS011;20142;28.494;-16.312;2023-04-01T20:40:29;2.53;;;1.00;;
33840;SDS011;20142;28.494;-16.312;2023-04-01T21:01:44;10.02;;;1.50;;
33840;SDS011;20142;28.494;-16.312;2023-04-01T21:07:33;8.10;;;1.60;;
33840;SDS011;20142;28.494;-16.312;2023-04-01T21:12:48;8.02;;;1.42;;
33840;SDS011;20142;28.494;-16.312;2023-04-01T21:40:02;10.45;;;2.50;;
33840;SDS011;20142;28.494;-16.312;2023-04-01T22:20:06;6.10;;;1.80;;
33840;SDS011;20142;28.494;-16.312;2023-04-01T22:31:14;7.47;;;1.27;;
33840;SDS011;20142;28.494;-16.312;2023-04-01T22:36:40;5.20;;;1.30;;
33840;SDS011;20142;28.494;-16.312;2023-04-01T22:41:57;5.38;;;1.08;;
33840;SDS011;20142;28.494;-16.312;2023-04-01T22:47:17;5.63;;;1.02;;
33840;SDS011;20142;28.494;-16.312;2023-04-01T22:57:55;11.18;;;1.63;;
33840;SDS011;20142;28.494;-16.312;2023-04-01T23:03:22;5.47;;;1.60;;
33840;SDS011;20142;28.494;-16.312;2023-04-01T23:13:51;6.95;;;1.67;;
33840;SDS011;20142;28.494;-16.312;2023-04-01T23:25:17;7.75;;;1.50;;
33840;SDS011;20142;28.494;-16.312;2023-04-01T23:36:36;5.43;;;1.48;;
33840;SDS011;20142;28.494;-16.312;2023-04-01T23:41:47;4.45;;;1.30;;
33840;SDS011;20142;28.494;-16.312;2023-04-01T23:46:49;5.75;;;1.42;;
33840;SDS011;20142;28.494;-16.312;2023-04-01T23:51:57;3.15;;;1.23;;
33840;SDS011;20142;28.494;-16.312;2023-04-01T23:57:04;4.85;;;1.05;;
